createdAt,value
2022-12-14T00:01:22.943Z,-3.07
2022-12-14T00:03:50.402Z,-3.01
2022-12-14T00:06:20.984Z,-2.99
2022-12-14T00:08:49.720Z,-2.97
2022-12-14T00:11:16.938Z,-3.03
2022-12-14T00:13:44.158Z,-3.00
2022-12-14T00:16:17.925Z,-2.98
2022-12-14T00:18:48.718Z,-2.98
2022-12-14T00:21:15.696Z,-2.97
2022-12-14T00:23:43.749Z,-2.97
2022-12-14T00:26:14.612Z,-2.96
2022-12-14T00:28:42.758Z,-2.97
2022-12-14T00:31:10.072Z,-2.97
2022-12-14T00:33:37.089Z,-2.97
2022-12-14T00:36:05.204Z,-2.94
2022-12-14T00:38:31.799Z,-2.99
2022-12-14T00:40:58.373Z,-2.91
2022-12-14T00:43:25.439Z,-3.03
2022-12-14T00:45:52.343Z,-3.08
2022-12-14T00:48:23.771Z,-3.01
2022-12-14T00:50:51.793Z,-2.94
2022-12-14T00:53:19.495Z,-2.94
2022-12-14T00:55:49.433Z,-2.92
2022-12-14T00:58:19.727Z,-2.97
2022-12-14T01:00:47.406Z,-2.92
2022-12-14T01:03:14.124Z,-2.95
2022-12-14T01:05:40.753Z,-2.93
2022-12-14T01:08:07.622Z,-2.92
2022-12-14T01:10:34.945Z,-2.95
2022-12-14T01:13:01.497Z,-2.90
2022-12-14T01:15:27.996Z,-2.90
2022-12-14T01:17:54.508Z,-2.95
2022-12-14T01:20:21.085Z,-3.00
2022-12-14T01:22:47.618Z,-2.92
2022-12-14T01:25:14.179Z,-3.00
2022-12-14T01:27:40.665Z,-3.01
2022-12-14T01:30:07.656Z,-2.87
2022-12-14T01:32:34.664Z,-2.94
2022-12-14T01:35:01.228Z,-2.92
2022-12-14T01:37:30.461Z,-2.93
2022-12-14T01:39:56.946Z,-2.84
2022-12-14T01:42:23.484Z,-2.87
2022-12-14T01:44:53.616Z,-2.99
2022-12-14T01:47:27.861Z,-2.87
2022-12-14T01:49:57.433Z,-2.88
2022-12-14T01:52:35.832Z,-2.94
2022-12-14T01:55:09.314Z,-2.94
2022-12-14T01:57:51.781Z,-2.98
2022-12-14T02:00:18.354Z,-2.88
2022-12-14T02:02:53.141Z,-2.90
2022-12-14T02:05:23.199Z,-2.95
2022-12-14T02:07:52.771Z,-2.99
2022-12-14T02:10:20.389Z,-3.11
2022-12-14T02:12:54.175Z,-2.99
2022-12-14T02:15:20.653Z,-3.03
2022-12-14T02:17:47.292Z,-3.00
2022-12-14T02:20:16.146Z,-3.01
2022-12-14T02:23:07.406Z,-3.03
2022-12-14T02:25:40.923Z,-2.99
2022-12-14T02:28:49.619Z,-2.97
2022-12-14T02:31:46.257Z,-2.97
2022-12-14T02:34:48.199Z,-2.95
2022-12-14T02:37:29.394Z,-2.96
2022-12-14T02:40:13.439Z,-2.88
2022-12-14T02:43:11.922Z,-2.87
2022-12-14T02:45:49.264Z,-2.89
2022-12-14T02:48:24.496Z,-2.96
2022-12-14T02:50:53.738Z,-2.87
2022-12-14T02:53:29.153Z,-2.86
2022-12-14T02:56:02.648Z,-2.86
2022-12-14T02:58:35.016Z,-3.10
2022-12-14T03:01:02.693Z,-2.96
2022-12-14T03:03:29.546Z,-2.95
2022-12-14T03:06:01.401Z,-2.97
2022-12-14T03:08:31.120Z,-3.00
2022-12-14T03:11:01.946Z,-3.09
2022-12-14T03:13:34.003Z,-3.01
2022-12-14T03:16:13.345Z,-3.22
2022-12-14T03:18:47.390Z,-2.99
2022-12-14T03:21:18.909Z,-3.00
2022-12-14T03:23:49.237Z,-3.01
2022-12-14T03:26:28.631Z,-2.98
2022-12-14T03:29:00.235Z,-3.00
2022-12-14T03:31:35.033Z,-3.01
2022-12-14T03:34:05.246Z,-3.07
2022-12-14T03:36:49.157Z,-3.00
2022-12-14T03:39:22.565Z,-3.11
2022-12-14T03:42:18.657Z,-3.24
2022-12-14T03:44:56.974Z,-3.12
2022-12-14T03:47:51.212Z,-3.07
2022-12-14T03:50:27.275Z,-3.07
2022-12-14T03:53:05.637Z,-3.01
2022-12-14T03:56:11.125Z,-3.08
2022-12-14T03:58:57.028Z,-2.96
2022-12-14T04:01:35.952Z,-2.96
2022-12-14T04:04:08.398Z,-3.01
2022-12-14T04:06:40.927Z,-3.02
2022-12-14T04:09:31.697Z,-3.23
2022-12-14T04:12:45.305Z,-3.01
2022-12-14T04:15:40.655Z,-3.00
2022-12-14T04:18:31.001Z,-3.00
2022-12-14T04:21:11.609Z,-3.04
2022-12-14T04:24:04.617Z,-2.99
2022-12-14T04:26:37.652Z,-2.95
2022-12-14T04:29:29.190Z,-2.97
2022-12-14T04:32:05.451Z,-2.99
2022-12-14T04:34:35.903Z,-3.01
2022-12-14T04:37:07.036Z,-2.93
2022-12-14T04:39:45.478Z,-3.03
2022-12-14T04:42:15.041Z,-3.06
2022-12-14T04:44:48.782Z,-3.16
2022-12-14T04:47:17.731Z,-3.10
2022-12-14T04:50:03.230Z,-3.13
2022-12-14T04:52:35.521Z,-3.22
2022-12-14T04:55:08.618Z,-3.00
2022-12-14T04:57:45.890Z,-2.97
2022-12-14T05:00:13.168Z,-3.03
2022-12-14T05:03:01.936Z,-3.03
2022-12-14T05:05:39.810Z,-3.03
2022-12-14T05:08:47.908Z,-3.06
2022-12-14T05:14:24.631Z,-3.12
2022-12-14T05:16:51.203Z,-3.10
2022-12-14T05:19:17.789Z,-3.11
2022-12-14T05:21:47.340Z,-3.12
2022-12-14T05:24:15.103Z,-3.12
2022-12-14T05:26:41.929Z,-3.02
2022-12-14T05:29:08.404Z,-3.13
2022-12-14T05:31:35.090Z,-3.04
2022-12-14T05:34:01.541Z,-3.03
2022-12-14T05:36:27.983Z,-3.04
2022-12-14T05:38:54.469Z,-3.06
2022-12-14T05:41:20.944Z,-3.02
2022-12-14T05:43:47.371Z,-2.96
2022-12-14T05:46:15.791Z,-2.94
2022-12-14T05:48:46.128Z,-2.91
2022-12-14T05:51:15.879Z,-2.95
2022-12-14T05:53:42.341Z,-2.93
2022-12-14T05:56:10.456Z,-2.90
2022-12-14T05:58:37.154Z,-2.86
2022-12-14T06:01:17.157Z,-2.84
2022-12-14T06:03:46.266Z,-2.82
2022-12-14T06:06:14.026Z,-2.83
2022-12-14T06:08:45.592Z,-2.81
2022-12-14T06:11:17.662Z,-2.85
2022-12-14T06:13:45.397Z,-2.94
2022-12-14T06:16:20.941Z,-2.85
2022-12-14T06:18:53.040Z,-2.85
2022-12-14T06:21:22.041Z,-2.81
2022-12-14T06:23:50.671Z,-2.81
2022-12-14T06:26:17.635Z,-2.82
2022-12-14T06:28:44.671Z,-2.85
2022-12-14T06:31:19.773Z,-2.85
2022-12-14T06:33:47.016Z,-2.87
2022-12-14T06:36:25.118Z,-2.85
2022-12-14T06:38:52.053Z,-2.85
2022-12-14T06:41:19.763Z,-2.86
2022-12-14T06:43:49.165Z,-2.86
2022-12-14T06:46:19.501Z,-2.85
2022-12-14T06:48:54.063Z,-2.83
2022-12-14T06:51:21.720Z,-2.83
2022-12-14T06:53:56.123Z,-2.84
2022-12-14T06:56:25.285Z,-2.79
2022-12-14T06:58:53.098Z,-2.83
2022-12-14T07:01:21.965Z,-2.89
2022-12-14T07:03:50.761Z,-2.96
2022-12-14T07:06:17.467Z,-2.90
2022-12-14T07:08:44.048Z,-2.84
2022-12-14T07:11:13.771Z,-2.89
2022-12-14T07:13:42.350Z,-2.80
2022-12-14T07:16:16.114Z,-2.87
2022-12-14T07:18:42.923Z,-2.85
2022-12-14T07:21:12.228Z,-2.85
2022-12-14T07:23:40.383Z,-2.86
2022-12-14T07:26:12.882Z,-2.84
2022-12-14T07:28:40.671Z,-2.80
2022-12-14T07:31:12.144Z,-2.83
2022-12-14T07:33:38.970Z,-2.86
2022-12-14T07:36:06.917Z,-2.78
2022-12-14T07:38:35.235Z,-2.76
2022-12-14T07:41:06.137Z,-2.69
2022-12-14T07:43:33.352Z,-2.67
2022-12-14T07:46:05.209Z,-2.70
2022-12-14T07:48:32.154Z,-2.66
2022-12-14T07:51:04.438Z,-2.66
2022-12-14T07:53:31.339Z,-2.63
2022-12-14T07:56:06.180Z,-2.60
2022-12-14T07:58:33.827Z,-2.66
2022-12-14T08:01:16.872Z,-2.61
2022-12-14T08:03:48.488Z,-2.58
2022-12-14T08:06:16.623Z,-2.55
2022-12-14T08:08:43.139Z,-2.58
2022-12-14T08:11:10.096Z,-2.54
2022-12-14T08:13:38.872Z,-2.65
2022-12-14T08:16:05.630Z,-2.46
2022-12-14T08:18:33.315Z,-2.46
2022-12-14T08:21:00.717Z,-2.45
2022-12-14T08:23:27.607Z,-2.43
2022-12-14T08:25:55.267Z,-2.51
2022-12-14T08:28:22.390Z,-2.45
2022-12-14T08:30:49.199Z,-2.40
2022-12-14T08:33:15.894Z,-2.42
2022-12-14T08:35:42.355Z,-2.41
2022-12-14T08:38:08.849Z,-2.33
2022-12-14T08:40:36.092Z,-2.38
2022-12-14T08:43:02.629Z,-2.32
2022-12-14T08:45:29.115Z,-2.51
2022-12-14T08:48:00.235Z,-2.33
2022-12-14T08:50:29.150Z,-2.26
2022-12-14T08:52:56.150Z,-2.28
2022-12-14T08:55:28.309Z,-2.24
2022-12-14T08:57:56.821Z,-2.32
2022-12-14T09:00:23.383Z,-2.24
2022-12-14T09:02:51.174Z,-2.23
2022-12-14T09:05:17.838Z,-2.28
2022-12-14T09:07:44.270Z,-2.19
2022-12-14T09:10:11.153Z,-2.14
2022-12-14T09:12:37.753Z,-2.16
2022-12-14T09:15:04.483Z,-2.18
2022-12-14T09:17:31.058Z,-2.15
2022-12-14T09:19:58.140Z,-2.18
2022-12-14T09:22:24.762Z,-2.09
2022-12-14T09:24:51.974Z,-2.04
2022-12-14T09:27:18.634Z,-1.97
2022-12-14T09:29:45.074Z,-1.95
2022-12-14T09:32:11.544Z,-1.99
2022-12-14T09:34:37.984Z,-2.01
2022-12-14T09:37:07.329Z,-2.05
2022-12-14T09:39:35.747Z,-2.13
2022-12-14T09:42:17.411Z,-1.95
2022-12-14T09:45:02.717Z,-1.87
2022-12-14T09:47:36.587Z,-1.81
2022-12-14T09:50:14.158Z,-1.75
2022-12-14T09:52:43.147Z,-1.74
2022-12-14T09:55:21.348Z,-1.74
2022-12-14T09:57:53.937Z,-1.72
2022-12-14T10:00:20.822Z,-1.63
2022-12-14T10:03:12.161Z,-1.61
2022-12-14T10:06:19.801Z,-1.61
2022-12-14T10:08:54.984Z,-1.61
2022-12-14T10:11:40.509Z,-1.57
2022-12-14T10:14:22.922Z,-1.44
2022-12-14T10:17:01.467Z,-1.44
2022-12-14T10:19:30.937Z,-1.43
2022-12-14T10:22:20.230Z,-1.34
2022-12-14T10:24:50.844Z,-1.28
2022-12-14T10:27:26.874Z,-1.32
2022-12-14T10:29:59.209Z,-1.36
2022-12-14T10:32:30.434Z,-1.35
2022-12-14T10:34:57.343Z,-1.33
2022-12-14T10:37:27.026Z,-1.28
2022-12-14T10:40:15.606Z,-1.16
2022-12-14T10:42:49.293Z,-1.07
2022-12-14T10:48:24.659Z,-1.08
2022-12-14T10:51:00.725Z,-1.01
2022-12-14T10:53:51.702Z,-0.87
2022-12-14T10:56:32.331Z,-0.76
2022-12-14T10:59:43.688Z,-0.81
2022-12-14T11:02:22.487Z,-0.76
2022-12-14T11:04:53.619Z,-0.65
2022-12-14T11:07:23.413Z,-0.62
2022-12-14T11:09:49.868Z,-0.56
2022-12-14T11:12:24.112Z,-0.59
2022-12-14T11:15:23.339Z,-0.56
2022-12-14T11:18:05.066Z,-0.59
2022-12-14T11:20:33.865Z,-0.56
2022-12-14T11:23:18.798Z,-0.54
2022-12-14T11:25:48.299Z,-0.60
2022-12-14T11:28:37.179Z,-0.63
2022-12-14T11:31:04.623Z,-0.58
2022-12-14T11:33:45.004Z,-0.44
2022-12-14T11:36:37.076Z,-0.33
2022-12-14T11:39:15.551Z,-0.33
2022-12-14T11:41:47.070Z,-0.32
2022-12-14T11:44:16.588Z,-0.25
2022-12-14T11:46:45.305Z,-0.24
2022-12-14T11:49:35.855Z,-0.29
2022-12-14T11:52:05.422Z,-0.26
2022-12-14T11:54:33.705Z,-0.15
2022-12-14T11:57:07.238Z,0.04
2022-12-14T11:59:40.998Z,0.01
2022-12-14T12:02:33.263Z,0.10
2022-12-14T12:05:07.814Z,0.21
2022-12-14T12:07:41.147Z,0.48
2022-12-14T12:10:13.782Z,0.45
2022-12-14T12:12:59.668Z,0.74
2022-12-14T12:15:38.449Z,0.66
2022-12-14T12:18:33.099Z,0.67
2022-12-14T12:21:09.716Z,0.59
2022-12-14T12:23:46.124Z,0.44
2022-12-14T12:26:25.644Z,0.52
2022-12-14T12:29:10.613Z,0.43
2022-12-14T12:32:06.152Z,0.39
2022-12-14T12:34:41.333Z,0.46
2022-12-14T12:37:26.372Z,0.39
2022-12-14T12:39:59.206Z,0.47
2022-12-14T12:42:42.237Z,0.50
2022-12-14T12:45:31.146Z,0.30
2022-12-14T12:48:16.175Z,0.38
2022-12-14T12:50:49.711Z,0.42
2022-12-14T12:53:21.470Z,0.50
2022-12-14T12:55:58.638Z,0.51
2022-12-14T12:58:30.280Z,0.49
2022-12-14T13:01:00.860Z,0.54
2022-12-14T13:03:37.252Z,0.68
2022-12-14T13:06:31.773Z,0.66
2022-12-14T13:09:02.272Z,0.61
2022-12-14T13:11:38.198Z,0.78
2022-12-14T13:14:32.182Z,0.63
2022-12-14T13:17:02.940Z,0.73
2022-12-14T13:19:51.983Z,0.92
2022-12-14T13:22:32.912Z,0.96
2022-12-14T13:25:11.057Z,0.88
2022-12-14T13:28:02.063Z,0.89
2022-12-14T13:30:48.655Z,1.02
2022-12-14T13:33:43.046Z,1.02
2022-12-14T13:36:28.224Z,1.01
2022-12-14T13:39:22.367Z,1.01
2022-12-14T13:42:15.472Z,1.02
2022-12-14T13:45:00.428Z,1.12
2022-12-14T13:47:40.265Z,1.00
2022-12-14T13:53:13.090Z,0.86
2022-12-14T13:55:55.571Z,0.78
2022-12-14T13:58:33.641Z,0.67
2022-12-14T14:01:03.845Z,0.76
2022-12-14T14:03:36.541Z,0.60
2022-12-14T14:06:12.506Z,0.53
2022-12-14T14:08:44.641Z,0.49
2022-12-14T14:11:39.533Z,0.48
2022-12-14T14:14:12.380Z,0.53
2022-12-14T14:16:44.824Z,0.48
2022-12-14T14:19:27.747Z,0.43
2022-12-14T14:24:56.919Z,0.41
2022-12-14T14:27:51.089Z,0.26
2022-12-14T14:30:27.844Z,0.26
2022-12-14T14:33:03.012Z,0.09
2022-12-14T14:35:40.254Z,-0.07
2022-12-14T14:38:29.749Z,0.04
2022-12-14T14:41:16.186Z,-0.06
2022-12-14T14:43:49.567Z,-0.15
2022-12-14T14:46:22.517Z,-0.24
2022-12-14T14:48:51.268Z,-0.43
2022-12-14T14:51:21.237Z,-0.46
2022-12-14T14:53:50.200Z,-0.52
2022-12-14T14:56:36.533Z,-0.58
2022-12-14T14:59:39.077Z,-0.63
2022-12-14T15:02:24.962Z,-0.70
2022-12-14T15:04:56.961Z,-0.70
2022-12-14T15:07:29.558Z,-0.70
2022-12-14T15:10:19.034Z,-0.73
2022-12-14T15:12:53.000Z,-0.85
2022-12-14T15:15:22.843Z,-0.77
2022-12-14T15:17:49.788Z,-0.87
2022-12-14T15:20:27.582Z,-0.83
2022-12-14T15:22:55.971Z,-0.80
2022-12-14T15:25:28.336Z,-0.82
2022-12-14T15:27:57.488Z,-0.89
2022-12-14T15:30:26.749Z,-1.02
2022-12-14T15:33:04.090Z,-0.96
2022-12-14T15:35:37.296Z,-0.99
2022-12-14T15:38:16.733Z,-1.00
2022-12-14T15:40:54.320Z,-1.02
2022-12-14T15:43:23.422Z,-1.06
2022-12-14T15:45:56.014Z,-1.10
2022-12-14T15:48:30.115Z,-1.08
2022-12-14T15:51:18.477Z,-1.07
2022-12-14T15:53:53.729Z,-1.08
2022-12-14T15:56:28.583Z,-1.12
2022-12-14T15:59:00.761Z,-1.16
2022-12-14T16:01:44.896Z,-1.19
2022-12-14T16:04:18.669Z,-1.26
2022-12-14T16:06:49.428Z,-1.37
2022-12-14T16:09:36.058Z,-1.50
2022-12-14T16:12:07.951Z,-1.48
2022-12-14T16:14:45.174Z,-1.52
2022-12-14T16:17:14.446Z,-1.58
2022-12-14T16:19:58.546Z,-1.67
2022-12-14T16:22:30.991Z,-1.74
2022-12-14T16:25:03.449Z,-1.77
2022-12-14T16:27:30.974Z,-1.85
2022-12-14T16:30:28.165Z,-1.91
2022-12-14T16:33:17.596Z,-1.97
2022-12-14T16:35:46.921Z,-1.98
2022-12-14T16:38:16.163Z,-1.97
2022-12-14T16:41:05.168Z,-1.95
2022-12-14T16:43:36.243Z,-1.99
2022-12-14T16:46:02.747Z,-2.06
2022-12-14T16:48:30.563Z,-2.13
2022-12-14T16:51:37.998Z,-2.19
2022-12-14T16:54:26.117Z,-2.24
2022-12-14T16:57:15.595Z,-2.32
2022-12-14T16:59:57.508Z,-2.42
2022-12-14T17:02:32.964Z,-2.46
2022-12-14T17:05:12.433Z,-2.49
2022-12-14T17:07:39.322Z,-2.57
2022-12-14T17:10:14.976Z,-2.57
2022-12-14T17:12:43.894Z,-2.59
2022-12-14T17:15:14.942Z,-2.59
2022-12-14T17:17:41.853Z,-2.60
2022-12-14T17:20:16.430Z,-2.65
2022-12-14T17:22:43.175Z,-2.69
2022-12-14T17:25:16.445Z,-2.84
2022-12-14T17:27:42.969Z,-2.82
2022-12-14T17:30:19.764Z,-2.87
2022-12-14T17:32:46.759Z,-2.96
2022-12-14T17:35:18.551Z,-2.96
2022-12-14T17:37:45.063Z,-2.95
2022-12-14T17:40:12.135Z,-2.98
2022-12-14T17:42:40.836Z,-3.13
2022-12-14T17:45:19.021Z,-3.04
2022-12-14T17:47:45.564Z,-3.14
2022-12-14T17:50:16.108Z,-3.07
2022-12-14T17:52:42.850Z,-3.10
2022-12-14T17:55:23.418Z,-3.15
2022-12-14T17:57:50.580Z,-3.20
2022-12-14T18:00:49.359Z,-3.22
2022-12-14T18:03:17.451Z,-3.26
2022-12-14T18:05:48.880Z,-3.30
2022-12-14T18:08:20.121Z,-3.30
2022-12-14T18:10:49.566Z,-3.34
2022-12-14T18:13:16.127Z,-3.41
2022-12-14T18:15:49.629Z,-3.45
2022-12-14T18:18:18.524Z,-3.53
2022-12-14T18:20:49.592Z,-3.55
2022-12-14T18:23:17.375Z,-3.57
2022-12-14T18:25:49.410Z,-3.63
2022-12-14T18:28:16.781Z,-3.68
2022-12-14T18:30:49.736Z,-3.62
2022-12-14T18:33:25.625Z,-3.59
2022-12-14T18:35:53.893Z,-3.58
2022-12-14T18:38:20.533Z,-3.64
2022-12-14T18:40:50.182Z,-3.66
2022-12-14T18:43:28.789Z,-3.68
2022-12-14T18:45:56.597Z,-3.73
2022-12-14T18:48:24.808Z,-3.77
2022-12-14T18:50:53.240Z,-3.81
2022-12-14T18:53:22.197Z,-3.85
2022-12-14T18:55:49.192Z,-3.82
2022-12-14T18:58:21.760Z,-3.86
2022-12-14T19:00:51.272Z,-3.90
2022-12-14T19:03:18.409Z,-3.93
2022-12-14T19:05:46.490Z,-3.95
2022-12-14T19:08:13.381Z,-3.97
2022-12-14T19:10:47.515Z,-4.00
2022-12-14T19:13:25.469Z,-4.10
2022-12-14T19:15:53.686Z,-4.06
2022-12-14T19:18:20.514Z,-4.13
2022-12-14T19:20:49.709Z,-4.17
2022-12-14T19:23:17.871Z,-4.16
2022-12-14T19:25:44.893Z,-4.17
2022-12-14T19:28:30.924Z,-4.20
2022-12-14T19:30:59.148Z,-4.17
2022-12-14T19:33:26.864Z,-4.17
2022-12-14T19:35:54.057Z,-4.22
2022-12-14T19:38:20.615Z,-4.19
2022-12-14T19:41:00.335Z,-4.13
2022-12-14T19:43:28.126Z,-4.13
2022-12-14T19:45:54.838Z,-4.14
2022-12-14T19:48:21.613Z,-4.20
2022-12-14T19:50:49.818Z,-4.18
2022-12-14T19:53:21.600Z,-4.10
2022-12-14T19:55:52.637Z,-4.06
2022-12-14T19:58:22.888Z,-4.04
2022-12-14T20:00:50.780Z,-4.09
2022-12-14T20:03:17.833Z,-4.04
2022-12-14T20:05:52.937Z,-4.07
2022-12-14T20:08:19.605Z,-4.12
2022-12-14T20:10:46.582Z,-4.22
2022-12-14T20:13:13.281Z,-4.27
2022-12-14T20:15:39.791Z,-4.32
2022-12-14T20:18:07.388Z,-4.33
2022-12-14T20:20:34.433Z,-4.41
2022-12-14T20:23:00.935Z,-4.44
2022-12-14T20:25:27.402Z,-4.37
2022-12-14T20:27:54.104Z,-4.49
2022-12-14T20:30:20.547Z,-4.42
2022-12-14T20:32:49.457Z,-4.43
2022-12-14T20:35:18.691Z,-4.46
2022-12-14T20:37:45.987Z,-4.48
2022-12-14T20:40:13.403Z,-4.51
2022-12-14T20:42:40.181Z,-4.64
2022-12-14T20:45:07.602Z,-4.61
2022-12-14T20:47:34.533Z,-4.52
2022-12-14T20:50:01.022Z,-4.83
2022-12-14T20:52:27.674Z,-4.61
2022-12-14T20:54:54.178Z,-4.83
2022-12-14T20:57:20.671Z,-4.63
2022-12-14T20:59:47.234Z,-4.59
2022-12-14T21:02:17.216Z,-4.62
2022-12-14T21:04:43.834Z,-4.66
2022-12-14T21:07:30.702Z,-4.70
2022-12-14T21:09:57.161Z,-4.76
2022-12-14T21:12:23.768Z,-4.75
2022-12-14T21:14:53.088Z,-4.84
2022-12-14T21:17:22.280Z,-4.78
2022-12-14T21:19:48.808Z,-4.85
2022-12-14T21:22:18.394Z,-5.07
2022-12-14T21:25:02.285Z,-4.97
2022-12-14T21:27:32.052Z,-5.08
2022-12-14T21:30:00.063Z,-5.05
2022-12-14T21:32:26.588Z,-5.07
2022-12-14T21:34:53.208Z,-5.12
2022-12-14T21:37:20.422Z,-5.15
2022-12-14T21:39:54.623Z,-5.20
2022-12-14T21:42:23.425Z,-5.21
2022-12-14T21:44:51.439Z,-5.21
2022-12-14T21:47:24.561Z,-5.20
2022-12-14T21:49:51.005Z,-5.27
2022-12-14T21:52:20.067Z,-5.19
2022-12-14T21:54:46.699Z,-5.31
2022-12-14T21:57:36.622Z,-5.20
2022-12-14T22:00:06.295Z,-5.29
2022-12-14T22:02:32.916Z,-5.20
2022-12-14T22:04:59.476Z,-5.34
2022-12-14T22:07:32.010Z,-5.20
2022-12-14T22:09:58.521Z,-5.21
2022-12-14T22:12:25.114Z,-5.23
2022-12-14T22:14:51.622Z,-5.28
2022-12-14T22:17:18.204Z,-5.27
2022-12-14T22:19:44.781Z,-5.36
2022-12-14T22:22:14.801Z,-5.32
2022-12-14T22:24:41.440Z,-5.37
2022-12-14T22:27:10.118Z,-5.47
2022-12-14T22:29:36.669Z,-5.37
2022-12-14T22:32:03.176Z,-5.41
2022-12-14T22:34:29.676Z,-5.44
2022-12-14T22:36:56.168Z,-5.45
2022-12-14T22:39:22.849Z,-5.46
2022-12-14T22:41:49.839Z,-5.59
2022-12-14T22:44:16.328Z,-5.56
2022-12-14T22:46:42.788Z,-5.62
2022-12-14T22:49:14.374Z,-5.73
2022-12-14T22:51:41.148Z,-5.96
2022-12-14T22:54:07.663Z,-5.73
2022-12-14T22:56:49.062Z,-5.87
2022-12-14T22:59:15.453Z,-5.87
2022-12-14T23:01:43.394Z,-5.88
2022-12-14T23:04:16.579Z,-5.88
2022-12-14T23:06:43.274Z,-5.92
2022-12-14T23:09:28.081Z,-5.89
2022-12-14T23:12:13.511Z,-5.90
2022-12-14T23:14:59.894Z,-5.88
2022-12-14T23:17:44.838Z,-5.91
2022-12-14T23:20:30.333Z,-5.88
2022-12-14T23:23:15.334Z,-5.89
2022-12-14T23:26:00.769Z,-5.92
2022-12-14T23:28:49.862Z,-5.96
2022-12-14T23:31:35.118Z,-5.97
2022-12-14T23:34:20.495Z,-6.01
2022-12-14T23:37:05.643Z,-6.04
2022-12-14T23:39:50.596Z,-6.07
2022-12-14T23:42:35.560Z,-6.15
2022-12-14T23:45:20.333Z,-6.16
2022-12-14T23:48:05.206Z,-6.21
2022-12-14T23:50:49.964Z,-6.12
2022-12-14T23:53:34.877Z,-6.12
2022-12-14T23:56:19.731Z,-6.10
2022-12-14T23:59:04.685Z,-6.14
